sensor_id;sensor_type;location;lat;lon;timestamp;temperature;humidity
67101;DHT22;54019;61.746;16.106;2023-02-12T00:00:35;23.60;26.30
67101;DHT22;54019;61.746;16.106;2023-02-12T00:03:00;23.50;26.30
67101;DHT22;54019;61.746;16.106;2023-02-12T00:05:27;23.50;26.30
67101;DHT22;54019;61.746;16.106;2023-02-12T00:07:54;23.50;26.40
67101;DHT22;54019;61.746;16.106;2023-02-12T00:10:20;23.40;26.30
67101;DHT22;54019;61.746;16.106;2023-02-12T00:12:46;23.40;26.40
67101;DHT22;54019;61.746;16.106;2023-02-12T00:15:11;23.40;26.40
67101;DHT22;54019;61.746;16.106;2023-02-12T00:17:37;23.40;26.40
67101;DHT22;54019;61.746;16.106;2023-02-12T00:20:04;23.30;26.40
67101;DHT22;54019;61.746;16.106;2023-02-12T00:22:30;23.40;26.30
67101;DHT22;54019;61.746;16.106;2023-02-12T00:24:57;23.40;26.30
67101;DHT22;54019;61.746;16.106;2023-02-12T00:27:23;23.40;26.30
67101;DHT22;54019;61.746;16.106;2023-02-12T00:29:49;23.40;26.30
67101;DHT22;54019;61.746;16.106;2023-02-12T00:32:15;23.50;26.40
67101;DHT22;54019;61.746;16.106;2023-02-12T00:34:41;23.50;26.30
67101;DHT22;54019;61.746;16.106;2023-02-12T00:37:06;23.50;26.30
67101;DHT22;54019;61.746;16.106;2023-02-12T00:39:32;23.50;26.20
67101;DHT22;54019;61.746;16.106;2023-02-12T00:41:59;23.50;26.20
67101;DHT22;54019;61.746;16.106;2023-02-12T00:44:25;23.50;26.30
67101;DHT22;54019;61.746;16.106;2023-02-12T00:46:51;23.50;26.30
67101;DHT22;54019;61.746;16.106;2023-02-12T00:49:16;23.50;26.30
67101;DHT22;54019;61.746;16.106;2023-02-12T00:51:42;23.40;26.30
67101;DHT22;54019;61.746;16.106;2023-02-12T00:54:08;23.40;26.30
67101;DHT22;54019;61.746;16.106;2023-02-12T00:56:34;23.40;26.30
67101;DHT22;54019;61.746;16.106;2023-02-12T00:59:01;23.30;26.40
67101;DHT22;54019;61.746;16.106;2023-02-12T01:01:27;23.40;26.20
67101;DHT22;54019;61.746;16.106;2023-02-12T01:03:53;23.40;26.20
67101;DHT22;54019;61.746;16.106;2023-02-12T01:06:18;23.40;26.20
67101;DHT22;54019;61.746;16.106;2023-02-12T01:08:44;23.40;26.10
67101;DHT22;54019;61.746;16.106;2023-02-12T01:11:12;23.40;25.90
67101;DHT22;54019;61.746;16.106;2023-02-12T01:13:37;23.40;25.70
67101;DHT22;54019;61.746;16.106;2023-02-12T01:16:07;23.50;25.50
67101;DHT22;54019;61.746;16.106;2023-02-12T01:18:33;23.50;25.40
67101;DHT22;54019;61.746;16.106;2023-02-12T01:20:59;23.40;25.20
67101;DHT22;54019;61.746;16.106;2023-02-12T01:23:26;23.40;25.10
67101;DHT22;54019;61.746;16.106;2023-02-12T01:25:52;23.40;25.00
67101;DHT22;54019;61.746;16.106;2023-02-12T01:28:18;23.40;25.10
67101;DHT22;54019;61.746;16.106;2023-02-12T01:30:44;23.40;25.10
67101;DHT22;54019;61.746;16.106;2023-02-12T01:33:11;23.30;25.10
67101;DHT22;54019;61.746;16.106;2023-02-12T01:35:37;23.20;25.00
67101;DHT22;54019;61.746;16.106;2023-02-12T01:38:03;23.20;25.00
67101;DHT22;54019;61.746;16.106;2023-02-12T01:40:28;23.10;25.00
67101;DHT22;54019;61.746;16.106;2023-02-12T01:42:54;23.20;24.90
67101;DHT22;54019;61.746;16.106;2023-02-12T01:48:25;23.20;24.70
67101;DHT22;54019;61.746;16.106;2023-02-12T01:50:53;23.30;24.60
67101;DHT22;54019;61.746;16.106;2023-02-12T01:53:21;23.30;24.40
67101;DHT22;54019;61.746;16.106;2023-02-12T01:55:50;23.40;24.30
67101;DHT22;54019;61.746;16.106;2023-02-12T01:58:18;23.40;24.20
67101;DHT22;54019;61.746;16.106;2023-02-12T02:00:44;23.40;24.10
67101;DHT22;54019;61.746;16.106;2023-02-12T02:03:10;23.40;24.10
67101;DHT22;54019;61.746;16.106;2023-02-12T02:05:43;23.40;24.10
67101;DHT22;54019;61.746;16.106;2023-02-12T02:08:10;23.30;24.20
67101;DHT22;54019;61.746;16.106;2023-02-12T02:10:37;23.30;24.20
67101;DHT22;54019;61.746;16.106;2023-02-12T02:13:03;23.20;24.20
67101;DHT22;54019;61.746;16.106;2023-02-12T02:15:30;23.20;24.30
67101;DHT22;54019;61.746;16.106;2023-02-12T02:18:00;23.10;24.30
67101;DHT22;54019;61.746;16.106;2023-02-12T02:20:52;23.10;24.30
67101;DHT22;54019;61.746;16.106;2023-02-12T02:26:27;23.10;24.10
67101;DHT22;54019;61.746;16.106;2023-02-12T02:29:08;23.20;24.10
67101;DHT22;54019;61.746;16.106;2023-02-12T02:31:42;23.20;24.00
67101;DHT22;54019;61.746;16.106;2023-02-12T02:34:13;23.20;23.90
67101;DHT22;54019;61.746;16.106;2023-02-12T02:36:44;23.30;23.90
67101;DHT22;54019;61.746;16.106;2023-02-12T02:39:16;23.30;24.40
67101;DHT22;54019;61.746;16.106;2023-02-12T02:41:48;23.30;23.70
67101;DHT22;54019;61.746;16.106;2023-02-12T02:44:18;23.30;23.70
67101;DHT22;54019;61.746;16.106;2023-02-12T02:46:49;23.30;23.70
67101;DHT22;54019;61.746;16.106;2023-02-12T02:49:18;23.20;23.70
67101;DHT22;54019;61.746;16.106;2023-02-12T02:51:48;23.10;23.80
67101;DHT22;54019;61.746;16.106;2023-02-12T02:54:20;23.10;23.80
67101;DHT22;54019;61.746;16.106;2023-02-12T02:56:48;23.10;23.80
67101;DHT22;54019;61.746;16.106;2023-02-12T02:59:18;23.10;24.50
67101;DHT22;54019;61.746;16.106;2023-02-12T03:01:51;23.10;23.80
67101;DHT22;54019;61.746;16.106;2023-02-12T03:04:21;23.10;23.90
67101;DHT22;54019;61.746;16.106;2023-02-12T03:06:52;23.10;23.80
67101;DHT22;54019;61.746;16.106;2023-02-12T03:09:22;23.10;23.70
67101;DHT22;54019;61.746;16.106;2023-02-12T03:11:51;23.20;23.60
67101;DHT22;54019;61.746;16.106;2023-02-12T03:14:21;23.20;23.50
67101;DHT22;54019;61.746;16.106;2023-02-12T03:16:54;23.20;23.40
67101;DHT22;54019;61.746;16.106;2023-02-12T03:19:24;23.20;23.40
67101;DHT22;54019;61.746;16.106;2023-02-12T03:21:54;23.20;23.40
67101;DHT22;54019;61.746;16.106;2023-02-12T03:24:25;23.20;23.40
67101;DHT22;54019;61.746;16.106;2023-02-12T03:26:59;23.20;23.50
67101;DHT22;54019;61.746;16.106;2023-02-12T03:29:27;23.10;23.50
67101;DHT22;54019;61.746;16.106;2023-02-12T03:32:02;23.10;23.50
67101;DHT22;54019;61.746;16.106;2023-02-12T03:34:40;23.00;23.50
67101;DHT22;54019;61.746;16.106;2023-02-12T03:37:12;23.00;23.50
67101;DHT22;54019;61.746;16.106;2023-02-12T03:39:52;23.00;23.50
67101;DHT22;54019;61.746;16.106;2023-02-12T03:42:24;23.00;23.40
67101;DHT22;54019;61.746;16.106;2023-02-12T03:44:53;23.00;23.40
67101;DHT22;54019;61.746;16.106;2023-02-12T03:47:26;23.10;23.40
67101;DHT22;54019;61.746;16.106;2023-02-12T03:50:01;23.10;23.30
67101;DHT22;54019;61.746;16.106;2023-02-12T03:52:29;23.20;23.20
67101;DHT22;54019;61.746;16.106;2023-02-12T03:54:54;23.20;23.10
67101;DHT22;54019;61.746;16.106;2023-02-12T03:57:23;23.20;23.10
67101;DHT22;54019;61.746;16.106;2023-02-12T03:59:50;23.20;23.10
67101;DHT22;54019;61.746;16.106;2023-02-12T04:02:17;23.20;23.10
67101;DHT22;54019;61.746;16.106;2023-02-12T04:04:46;23.10;23.10
67101;DHT22;54019;61.746;16.106;2023-02-12T04:07:12;23.10;23.20
67101;DHT22;54019;61.746;16.106;2023-02-12T04:09:38;23.10;23.30
67101;DHT22;54019;61.746;16.106;2023-02-12T04:12:20;23.00;23.20
67101;DHT22;54019;61.746;16.106;2023-02-12T04:14:54;22.90;23.30
67101;DHT22;54019;61.746;16.106;2023-02-12T04:17:28;23.00;23.30
67101;DHT22;54019;61.746;16.106;2023-02-12T04:20:07;23.00;23.30
67101;DHT22;54019;61.746;16.106;2023-02-12T04:22:44;23.00;23.20
67101;DHT22;54019;61.746;16.106;2023-02-12T04:25:20;23.00;23.10
67101;DHT22;54019;61.746;16.106;2023-02-12T04:27:56;23.10;23.10
67101;DHT22;54019;61.746;16.106;2023-02-12T04:30:27;23.10;23.10
67101;DHT22;54019;61.746;16.106;2023-02-12T04:32:59;23.10;22.90
67101;DHT22;54019;61.746;16.106;2023-02-12T04:35:31;23.20;22.90
67101;DHT22;54019;61.746;16.106;2023-02-12T04:38:02;23.10;23.00
67101;DHT22;54019;61.746;16.106;2023-02-12T04:40:29;23.10;23.00
67101;DHT22;54019;61.746;16.106;2023-02-12T04:42:55;23.10;23.10
67101;DHT22;54019;61.746;16.106;2023-02-12T04:45:23;23.00;23.00
67101;DHT22;54019;61.746;16.106;2023-02-12T04:47:50;23.00;23.00
67101;DHT22;54019;61.746;16.106;2023-02-12T04:50:16;22.90;23.00
67101;DHT22;54019;61.746;16.106;2023-02-12T04:52:43;22.90;23.00
67101;DHT22;54019;61.746;16.106;2023-02-12T04:55:09;23.00;23.00
67101;DHT22;54019;61.746;16.106;2023-02-12T04:57:36;23.00;23.00
67101;DHT22;54019;61.746;16.106;2023-02-12T05:00:03;23.00;23.00
67101;DHT22;54019;61.746;16.106;2023-02-12T05:02:29;23.00;22.90
67101;DHT22;54019;61.746;16.106;2023-02-12T05:04:54;23.00;22.80
67101;DHT22;54019;61.746;16.106;2023-02-12T05:07:20;23.10;22.90
67101;DHT22;54019;61.746;16.106;2023-02-12T05:09:47;23.10;22.80
67101;DHT22;54019;61.746;16.106;2023-02-12T05:12:13;23.10;22.70
67101;DHT22;54019;61.746;16.106;2023-02-12T05:14:39;23.10;22.70
67101;DHT22;54019;61.746;16.106;2023-02-12T05:17:05;23.10;22.70
67101;DHT22;54019;61.746;16.106;2023-02-12T05:19:31;23.10;22.70
67101;DHT22;54019;61.746;16.106;2023-02-12T05:21:56;23.00;22.70
67101;DHT22;54019;61.746;16.106;2023-02-12T05:24:22;23.00;22.80
67101;DHT22;54019;61.746;16.106;2023-02-12T05:26:49;23.00;22.80
67101;DHT22;54019;61.746;16.106;2023-02-12T05:29:15;22.90;22.90
67101;DHT22;54019;61.746;16.106;2023-02-12T05:31:41;23.00;22.90
67101;DHT22;54019;61.746;16.106;2023-02-12T05:34:09;22.90;22.90
67101;DHT22;54019;61.746;16.106;2023-02-12T05:36:35;22.90;23.00
67101;DHT22;54019;61.746;16.106;2023-02-12T05:39:01;22.90;22.90
67101;DHT22;54019;61.746;16.106;2023-02-12T05:41:27;22.90;22.90
67101;DHT22;54019;61.746;16.106;2023-02-12T05:43:55;23.00;22.90
67101;DHT22;54019;61.746;16.106;2023-02-12T05:46:21;23.00;22.90
67101;DHT22;54019;61.746;16.106;2023-02-12T05:48:47;23.00;22.80
67101;DHT22;54019;61.746;16.106;2023-02-12T05:51:14;23.10;22.80
67101;DHT22;54019;61.746;16.106;2023-02-12T05:53:40;23.10;22.70
67101;DHT22;54019;61.746;16.106;2023-02-12T05:56:11;23.10;22.70
67101;DHT22;54019;61.746;16.106;2023-02-12T05:58:38;23.10;23.30
67101;DHT22;54019;61.746;16.106;2023-02-12T06:01:11;23.10;22.70
67101;DHT22;54019;61.746;16.106;2023-02-12T06:03:37;23.00;22.70
67101;DHT22;54019;61.746;16.106;2023-02-12T06:06:03;23.00;22.80
67101;DHT22;54019;61.746;16.106;2023-02-12T06:08:29;23.00;23.00
67101;DHT22;54019;61.746;16.106;2023-02-12T06:10:59;22.90;23.00
67101;DHT22;54019;61.746;16.106;2023-02-12T06:13:25;22.90;23.00
67101;DHT22;54019;61.746;16.106;2023-02-12T06:15:50;22.90;23.10
67101;DHT22;54019;61.746;16.106;2023-02-12T06:18:17;22.90;23.10
67101;DHT22;54019;61.746;16.106;2023-02-12T06:20:43;22.90;23.10
67101;DHT22;54019;61.746;16.106;2023-02-12T06:23:09;23.00;23.00
67101;DHT22;54019;61.746;16.106;2023-02-12T06:25:35;23.00;23.00
67101;DHT22;54019;61.746;16.106;2023-02-12T06:28:00;23.00;23.00
67101;DHT22;54019;61.746;16.106;2023-02-12T06:30:26;23.10;23.10
67101;DHT22;54019;61.746;16.106;2023-02-12T06:32:52;23.10;23.10
67101;DHT22;54019;61.746;16.106;2023-02-12T06:35:19;23.00;23.00
67101;DHT22;54019;61.746;16.106;2023-02-12T06:37:45;23.00;23.00
67101;DHT22;54019;61.746;16.106;2023-02-12T06:40:11;23.00;23.10
67101;DHT22;54019;61.746;16.106;2023-02-12T06:42:37;23.00;23.10
67101;DHT22;54019;61.746;16.106;2023-02-12T06:45:03;23.00;23.20
67101;DHT22;54019;61.746;16.106;2023-02-12T06:47:29;22.90;23.30
67101;DHT22;54019;61.746;16.106;2023-02-12T06:49:55;22.90;23.20
67101;DHT22;54019;61.746;16.106;2023-02-12T06:52:22;22.90;23.20
67101;DHT22;54019;61.746;16.106;2023-02-12T06:54:48;22.90;23.20
67101;DHT22;54019;61.746;16.106;2023-02-12T06:57:14;22.90;23.20
67101;DHT22;54019;61.746;16.106;2023-02-12T06:59:40;22.90;23.20
67101;DHT22;54019;61.746;16.106;2023-02-12T07:02:05;23.00;23.20
67101;DHT22;54019;61.746;16.106;2023-02-12T07:04:31;23.00;23.20
67101;DHT22;54019;61.746;16.106;2023-02-12T07:06:57;23.00;23.10
67101;DHT22;54019;61.746;16.106;2023-02-12T07:09:24;23.10;23.20
67101;DHT22;54019;61.746;16.106;2023-02-12T07:11:50;23.10;23.20
67101;DHT22;54019;61.746;16.106;2023-02-12T07:14:16;23.10;23.20
67101;DHT22;54019;61.746;16.106;2023-02-12T07:16:42;23.00;23.10
67101;DHT22;54019;61.746;16.106;2023-02-12T07:19:10;23.00;23.10
67101;DHT22;54019;61.746;16.106;2023-02-12T07:21:37;23.00;23.20
67101;DHT22;54019;61.746;16.106;2023-02-12T07:24:03;23.00;23.20
67101;DHT22;54019;61.746;16.106;2023-02-12T07:26:31;22.90;23.30
67101;DHT22;54019;61.746;16.106;2023-02-12T07:28:56;22.90;23.30
67101;DHT22;54019;61.746;16.106;2023-02-12T07:31:23;22.80;23.30
67101;DHT22;54019;61.746;16.106;2023-02-12T07:33:52;22.90;23.40
67101;DHT22;54019;61.746;16.106;2023-02-12T07:36:19;22.90;23.30
67101;DHT22;54019;61.746;16.106;2023-02-12T07:38:45;22.90;23.30
67101;DHT22;54019;61.746;16.106;2023-02-12T07:41:12;23.00;23.30
67101;DHT22;54019;61.746;16.106;2023-02-12T07:43:40;23.00;23.40
67101;DHT22;54019;61.746;16.106;2023-02-12T07:46:11;23.10;23.60
67101;DHT22;54019;61.746;16.106;2023-02-12T07:48:37;23.20;23.50
67101;DHT22;54019;61.746;16.106;2023-02-12T07:51:05;23.10;23.50
67101;DHT22;54019;61.746;16.106;2023-02-12T07:53:31;23.10;24.90
67101;DHT22;54019;61.746;16.106;2023-02-12T07:56:04;23.10;24.80
67101;DHT22;54019;61.746;16.106;2023-02-12T07:58:30;23.00;24.80
67101;DHT22;54019;61.746;16.106;2023-02-12T08:00:57;23.00;25.30
67101;DHT22;54019;61.746;16.106;2023-02-12T08:03:23;23.00;25.80
67101;DHT22;54019;61.746;16.106;2023-02-12T08:05:49;23.00;25.90
67101;DHT22;54019;61.746;16.106;2023-02-12T08:08:15;23.00;25.60
67101;DHT22;54019;61.746;16.106;2023-02-12T08:10:40;23.00;25.70
67101;DHT22;54019;61.746;16.106;2023-02-12T08:13:06;23.00;25.70
67101;DHT22;54019;61.746;16.106;2023-02-12T08:15:32;23.00;25.70
67101;DHT22;54019;61.746;16.106;2023-02-12T08:17:59;23.10;25.90
67101;DHT22;54019;61.746;16.106;2023-02-12T08:20:25;23.10;25.70
67101;DHT22;54019;61.746;16.106;2023-02-12T08:22:50;23.10;25.70
67101;DHT22;54019;61.746;16.106;2023-02-12T08:25:16;23.20;25.60
67101;DHT22;54019;61.746;16.106;2023-02-12T08:27:42;23.20;25.60
67101;DHT22;54019;61.746;16.106;2023-02-12T08:30:09;23.20;25.60
67101;DHT22;54019;61.746;16.106;2023-02-12T08:32:35;23.20;25.60
67101;DHT22;54019;61.746;16.106;2023-02-12T08:35:02;23.20;25.60
67101;DHT22;54019;61.746;16.106;2023-02-12T08:37:28;23.10;25.50
67101;DHT22;54019;61.746;16.106;2023-02-12T08:39:54;23.10;25.60
67101;DHT22;54019;61.746;16.106;2023-02-12T08:42:20;23.00;25.60
67101;DHT22;54019;61.746;16.106;2023-02-12T08:44:45;23.00;25.60
67101;DHT22;54019;61.746;16.106;2023-02-12T08:47:11;23.00;25.70
67101;DHT22;54019;61.746;16.106;2023-02-12T08:49:37;23.00;26.00
67101;DHT22;54019;61.746;16.106;2023-02-12T08:52:04;23.00;25.60
67101;DHT22;54019;61.746;16.106;2023-02-12T08:54:30;23.00;25.00
67101;DHT22;54019;61.746;16.106;2023-02-12T08:56:57;23.10;25.10
67101;DHT22;54019;61.746;16.106;2023-02-12T08:59:23;23.10;25.30
67101;DHT22;54019;61.746;16.106;2023-02-12T09:01:50;23.20;25.40
67101;DHT22;54019;61.746;16.106;2023-02-12T09:04:18;23.30;25.30
67101;DHT22;54019;61.746;16.106;2023-02-12T09:06:45;23.50;25.20
67101;DHT22;54019;61.746;16.106;2023-02-12T09:09:13;23.50;25.20
67101;DHT22;54019;61.746;16.106;2023-02-12T09:11:38;23.40;24.30
67101;DHT22;54019;61.746;16.106;2023-02-12T09:14:07;23.40;25.50
67101;DHT22;54019;61.746;16.106;2023-02-12T09:16:35;23.40;25.90
67101;DHT22;54019;61.746;16.106;2023-02-12T09:19:01;23.50;26.20
67101;DHT22;54019;61.746;16.106;2023-02-12T09:21:27;23.50;26.80
67101;DHT22;54019;61.746;16.106;2023-02-12T09:23:53;23.50;26.30
67101;DHT22;54019;61.746;16.106;2023-02-12T09:26:22;23.60;27.00
67101;DHT22;54019;61.746;16.106;2023-02-12T09:28:49;23.60;26.40
67101;DHT22;54019;61.746;16.106;2023-02-12T09:31:19;23.60;26.40
67101;DHT22;54019;61.746;16.106;2023-02-12T09:33:46;23.70;26.30
67101;DHT22;54019;61.746;16.106;2023-02-12T09:36:13;23.70;26.40
67101;DHT22;54019;61.746;16.106;2023-02-12T09:38:40;23.80;26.40
67101;DHT22;54019;61.746;16.106;2023-02-12T09:41:20;23.80;26.60
67101;DHT22;54019;61.746;16.106;2023-02-12T09:43:53;23.80;26.40
67101;DHT22;54019;61.746;16.106;2023-02-12T09:46:23;23.90;26.40
67101;DHT22;54019;61.746;16.106;2023-02-12T09:48:59;23.90;26.60
67101;DHT22;54019;61.746;16.106;2023-02-12T09:51:29;23.90;26.80
67101;DHT22;54019;61.746;16.106;2023-02-12T09:54:01;23.90;27.00
67101;DHT22;54019;61.746;16.106;2023-02-12T09:56:27;23.90;27.20
67101;DHT22;54019;61.746;16.106;2023-02-12T09:58:58;23.90;27.20
67101;DHT22;54019;61.746;16.106;2023-02-12T10:01:27;23.90;27.20
67101;DHT22;54019;61.746;16.106;2023-02-12T10:03:53;23.90;27.10
67101;DHT22;54019;61.746;16.106;2023-02-12T10:06:20;23.90;27.40
67101;DHT22;54019;61.746;16.106;2023-02-12T10:08:57;23.90;27.30
67101;DHT22;54019;61.746;16.106;2023-02-12T10:11:39;24.00;27.30
67101;DHT22;54019;61.746;16.106;2023-02-12T10:14:24;24.00;26.80
67101;DHT22;54019;61.746;16.106;2023-02-12T10:16:58;24.00;26.50
67101;DHT22;54019;61.746;16.106;2023-02-12T10:19:42;24.00;26.50
67101;DHT22;54019;61.746;16.106;2023-02-12T10:22:16;23.90;26.60
67101;DHT22;54019;61.746;16.106;2023-02-12T10:25:00;23.90;26.40
67101;DHT22;54019;61.746;16.106;2023-02-12T10:27:35;23.90;27.30
67101;DHT22;54019;61.746;16.106;2023-02-12T10:30:13;23.80;26.70
67101;DHT22;54019;61.746;16.106;2023-02-12T10:32:42;23.80;26.60
67101;DHT22;54019;61.746;16.106;2023-02-12T10:35:13;23.80;26.60
67101;DHT22;54019;61.746;16.106;2023-02-12T10:37:42;23.70;26.80
67101;DHT22;54019;61.746;16.106;2023-02-12T10:40:16;23.70;26.30
67101;DHT22;54019;61.746;16.106;2023-02-12T10:42:44;23.60;26.50
67101;DHT22;54019;61.746;16.106;2023-02-12T10:45:14;23.60;26.60
67101;DHT22;54019;61.746;16.106;2023-02-12T10:47:40;23.60;26.40
67101;DHT22;54019;61.746;16.106;2023-02-12T10:50:19;23.60;26.30
67101;DHT22;54019;61.746;16.106;2023-02-12T10:52:48;23.60;26.20
67101;DHT22;54019;61.746;16.106;2023-02-12T10:55:26;23.70;26.20
67101;DHT22;54019;61.746;16.106;2023-02-12T10:57:53;23.70;26.00
67101;DHT22;54019;61.746;16.106;2023-02-12T11:00:26;23.80;26.10
67101;DHT22;54019;61.746;16.106;2023-02-12T11:03:03;23.70;25.80
67101;DHT22;54019;61.746;16.106;2023-02-12T11:05:31;23.70;25.60
67101;DHT22;54019;61.746;16.106;2023-02-12T11:07:57;23.70;25.60
67101;DHT22;54019;61.746;16.106;2023-02-12T11:10:27;23.70;25.50
67101;DHT22;54019;61.746;16.106;2023-02-12T11:12:53;23.60;25.40
67101;DHT22;54019;61.746;16.106;2023-02-12T11:15:21;23.60;25.30
67101;DHT22;54019;61.746;16.106;2023-02-12T11:17:57;23.60;25.20
67101;DHT22;54019;61.746;16.106;2023-02-12T11:20:26;23.50;25.90
67101;DHT22;54019;61.746;16.106;2023-02-12T11:22:53;23.50;25.20
67101;DHT22;54019;61.746;16.106;2023-02-12T11:25:20;23.40;25.10
67101;DHT22;54019;61.746;16.106;2023-02-12T11:27:58;23.50;25.20
67101;DHT22;54019;61.746;16.106;2023-02-12T11:30:25;23.50;25.20
67101;DHT22;54019;61.746;16.106;2023-02-12T11:32:51;23.50;25.10
67101;DHT22;54019;61.746;16.106;2023-02-12T11:35:20;23.50;25.00
67101;DHT22;54019;61.746;16.106;2023-02-12T11:37:46;23.50;25.00
67101;DHT22;54019;61.746;16.106;2023-02-12T11:40:19;23.50;24.90
67101;DHT22;54019;61.746;16.106;2023-02-12T11:42:49;23.50;24.80
67101;DHT22;54019;61.746;16.106;2023-02-12T11:45:16;23.50;24.90
67101;DHT22;54019;61.746;16.106;2023-02-12T11:47:42;23.50;24.80
67101;DHT22;54019;61.746;16.106;2023-02-12T11:50:23;23.50;24.80
67101;DHT22;54019;61.746;16.106;2023-02-12T11:52:51;23.50;24.80
67101;DHT22;54019;61.746;16.106;2023-02-12T11:55:21;23.40;24.80
67101;DHT22;54019;61.746;16.106;2023-02-12T11:57:49;23.40;24.70
67101;DHT22;54019;61.746;16.106;2023-02-12T12:00:18;23.40;25.10
67101;DHT22;54019;61.746;16.106;2023-02-12T12:02:49;23.30;25.70
67101;DHT22;54019;61.746;16.106;2023-02-12T12:05:18;23.30;25.90
67101;DHT22;54019;61.746;16.106;2023-02-12T12:07:49;23.20;25.80
67101;DHT22;54019;61.746;16.106;2023-02-12T12:10:20;23.30;25.30
67101;DHT22;54019;61.746;16.106;2023-02-12T12:12:53;23.30;24.70
67101;DHT22;54019;61.746;16.106;2023-02-12T12:15:23;23.30;24.30
67101;DHT22;54019;61.746;16.106;2023-02-12T12:17:53;23.30;24.10
67101;DHT22;54019;61.746;16.106;2023-02-12T12:20:22;23.30;23.80
67101;DHT22;54019;61.746;16.106;2023-02-12T12:22:54;23.30;23.80
67101;DHT22;54019;61.746;16.106;2023-02-12T12:25:25;23.30;23.50
67101;DHT22;54019;61.746;16.106;2023-02-12T12:27:58;23.30;23.40
67101;DHT22;54019;61.746;16.106;2023-02-12T12:30:43;23.30;23.20
67101;DHT22;54019;61.746;16.106;2023-02-12T12:33:14;23.20;23.50
67101;DHT22;54019;61.746;16.106;2023-02-12T12:35:46;23.30;23.80
67101;DHT22;54019;61.746;16.106;2023-02-12T12:38:30;23.30;26.10
67101;DHT22;54019;61.746;16.106;2023-02-12T12:41:05;23.30;26.30
67101;DHT22;54019;61.746;16.106;2023-02-12T12:43:41;23.30;26.10
67101;DHT22;54019;61.746;16.106;2023-02-12T12:46:18;23.30;26.60
67101;DHT22;54019;61.746;16.106;2023-02-12T12:49:13;23.30;25.90
67101;DHT22;54019;61.746;16.106;2023-02-12T12:52:06;23.20;25.20
67101;DHT22;54019;61.746;16.106;2023-02-12T12:54:51;23.20;24.80
67101;DHT22;54019;61.746;16.106;2023-02-12T12:57:33;23.20;25.10
67101;DHT22;54019;61.746;16.106;2023-02-12T13:00:11;23.20;24.80
67101;DHT22;54019;61.746;16.106;2023-02-12T13:03:09;23.20;24.50
67101;DHT22;54019;61.746;16.106;2023-02-12T13:06:16;23.20;24.30
67101;DHT22;54019;61.746;16.106;2023-02-12T13:11:48;23.20;24.10
67101;DHT22;54019;61.746;16.106;2023-02-12T13:14:35;23.10;24.20
67101;DHT22;54019;61.746;16.106;2023-02-12T13:17:04;23.10;24.10
67101;DHT22;54019;61.746;16.106;2023-02-12T13:19:38;23.10;24.00
67101;DHT22;54019;61.746;16.106;2023-02-12T13:22:11;23.00;24.00
67101;DHT22;54019;61.746;16.106;2023-02-12T13:24:44;23.00;24.70
67101;DHT22;54019;61.746;16.106;2023-02-12T13:27:16;23.00;25.00
67101;DHT22;54019;61.746;16.106;2023-02-12T13:29:47;23.00;25.10
67101;DHT22;54019;61.746;16.106;2023-02-12T13:32:18;22.90;25.20
67101;DHT22;54019;61.746;16.106;2023-02-12T13:34:47;22.90;25.70
67101;DHT22;54019;61.746;16.106;2023-02-12T13:37:16;22.90;25.20
67101;DHT22;54019;61.746;16.106;2023-02-12T13:39:45;22.90;25.00
67101;DHT22;54019;61.746;16.106;2023-02-12T13:42:25;22.90;24.90
67101;DHT22;54019;61.746;16.106;2023-02-12T13:44:58;23.00;23.60
67101;DHT22;54019;61.746;16.106;2023-02-12T13:47:31;23.10;23.30
67101;DHT22;54019;61.746;16.106;2023-02-12T13:50:05;23.10;24.00
67101;DHT22;54019;61.746;16.106;2023-02-12T13:52:39;23.00;22.90
67101;DHT22;54019;61.746;16.106;2023-02-12T13:55:20;23.00;23.00
67101;DHT22;54019;61.746;16.106;2023-02-12T14:00:59;23.00;23.10
67101;DHT22;54019;61.746;16.106;2023-02-12T14:03:26;23.00;27.90
67101;DHT22;54019;61.746;16.106;2023-02-12T14:06:07;23.00;28.70
67101;DHT22;54019;61.746;16.106;2023-02-12T14:08:35;23.00;27.00
67101;DHT22;54019;61.746;16.106;2023-02-12T14:11:04;23.00;27.60
67101;DHT22;54019;61.746;16.106;2023-02-12T14:13:43;23.00;27.40
67101;DHT22;54019;61.746;16.106;2023-02-12T14:16:35;23.00;27.50
67101;DHT22;54019;61.746;16.106;2023-02-12T14:19:35;22.90;26.80
67101;DHT22;54019;61.746;16.106;2023-02-12T14:22:09;22.90;26.70
67101;DHT22;54019;61.746;16.106;2023-02-12T14:24:51;22.80;26.40
67101;DHT22;54019;61.746;16.106;2023-02-12T14:30:30;22.80;26.00
67101;DHT22;54019;61.746;16.106;2023-02-12T14:33:17;22.90;25.60
67101;DHT22;54019;61.746;16.106;2023-02-12T14:35:44;22.90;25.60
67101;DHT22;54019;61.746;16.106;2023-02-12T14:41:27;22.90;25.20
67101;DHT22;54019;61.746;16.106;2023-02-12T14:50:19;22.80;26.00
67101;DHT22;54019;61.746;16.106;2023-02-12T14:52:51;22.80;26.50
67101;DHT22;54019;61.746;16.106;2023-02-12T14:55:21;22.70;26.90
67101;DHT22;54019;61.746;16.106;2023-02-12T14:57:47;22.70;26.60
67101;DHT22;54019;61.746;16.106;2023-02-12T15:00:26;22.80;27.30
67101;DHT22;54019;61.746;16.106;2023-02-12T15:02:54;22.90;27.40
67101;DHT22;54019;61.746;16.106;2023-02-12T15:05:27;22.90;26.80
67101;DHT22;54019;61.746;16.106;2023-02-12T15:07:56;22.90;26.50
67101;DHT22;54019;61.746;16.106;2023-02-12T15:10:27;22.80;26.50
67101;DHT22;54019;61.746;16.106;2023-02-12T15:13:01;22.80;26.20
67101;DHT22;54019;61.746;16.106;2023-02-12T15:15:33;22.80;25.70
67101;DHT22;54019;61.746;16.106;2023-02-12T15:18:05;22.90;25.50
67101;DHT22;54019;61.746;16.106;2023-02-12T15:20:45;22.90;25.20
67101;DHT22;54019;61.746;16.106;2023-02-12T15:23:37;22.80;25.00
67101;DHT22;54019;61.746;16.106;2023-02-12T15:26:03;22.90;24.50
67101;DHT22;54019;61.746;16.106;2023-02-12T15:28:31;23.00;24.50
67101;DHT22;54019;61.746;16.106;2023-02-12T15:30:58;23.00;30.80
67101;DHT22;54019;61.746;16.106;2023-02-12T15:33:27;23.10;33.60
67101;DHT22;54019;61.746;16.106;2023-02-12T15:35:56;23.20;31.80
67101;DHT22;54019;61.746;16.106;2023-02-12T15:38:26;23.20;29.90
67101;DHT22;54019;61.746;16.106;2023-02-12T15:40:57;23.20;29.20
67101;DHT22;54019;61.746;16.106;2023-02-12T15:43:25;23.20;28.70
67101;DHT22;54019;61.746;16.106;2023-02-12T15:45:52;23.20;29.30
67101;DHT22;54019;61.746;16.106;2023-02-12T15:48:19;23.10;28.60
67101;DHT22;54019;61.746;16.106;2023-02-12T15:50:48;23.20;28.50
67101;DHT22;54019;61.746;16.106;2023-02-12T15:53:17;23.20;28.10
67101;DHT22;54019;61.746;16.106;2023-02-12T15:55:45;23.20;28.30